メインページ
METAR-TAF:

METAR-TAF

空港 :

Chautauqua County/Dunkirk Airport

Dunkirk, ニューヨーク, アメリカ合衆国

緯度: 42-29-35N, 経度: 079-16-33W, 海抜: 211m

現時点の気象観測

当レポートは1時間1分前の01:53(UTC)に作成
北西の風 11kt
気温 1°C
湿度 69%
気圧 1023 hPa
視程: 16.1km
高度2500ftの雲はほとんどない
高度3000ftの雲は散在している
高度5000ftの曇り

METAR: KDKK 070153Z AUTO 31011KT 10SM FEW025 SCT030 OVC050 01/M04 A3022 RMK AO2 SLP240 T00111044

時間: 21:54 (02:54 UTC)


TAF: 見つかりません

4,000以上の空港の気象観測と天気予報(METAR報とTAF報)

利用可能な観測所は地図上に黄色い丸と赤い丸で示す。

丸の上にカーソルを重ねると観測所名を参照できる。

次にクリックすると気象観測と天気予報を参照できる。

マップの切り替え:黒色「×」印の緑ボタンをクリックして拡大、「-」印の緑ボタンをクリックして縮小、緑色の三角印をクリックして隣りの地図に切り替え


METAR-TAF: